sensor_id;sensor_type;location;lat;lon;timestamp;P1;durP1;ratioP1;P2;durP2;ratioP2
11699;SDS011;5906;51.660;6.674;2023-12-04T00:02:10;32.17;;;15.17;;
11699;SDS011;5906;51.660;6.674;2023-12-04T00:04:37;24.97;;;13.60;;
11699;SDS011;5906;51.660;6.674;2023-12-04T00:07:05;28.93;;;13.80;;
11699;SDS011;5906;51.660;6.674;2023-12-04T00:09:32;26.20;;;13.97;;
11699;SDS011;5906;51.660;6.674;2023-12-04T00:11:59;30.83;;;15.07;;
11699;SDS011;5906;51.660;6.674;2023-12-04T00:14:26;24.47;;;13.50;;
11699;SDS011;5906;51.660;6.674;2023-12-04T00:16:54;24.67;;;13.23;;
11699;SDS011;5906;51.660;6.674;2023-12-04T00:19:21;27.03;;;15.03;;
11699;SDS011;5906;51.660;6.674;2023-12-04T00:21:49;31.53;;;14.23;;
11699;SDS011;5906;51.660;6.674;2023-12-04T00:24:17;22.83;;;13.67;;
11699;SDS011;5906;51.660;6.674;2023-12-04T00:26:44;26.90;;;12.97;;
11699;SDS011;5906;51.660;6.674;2023-12-04T00:29:11;23.63;;;11.60;;
11699;SDS011;5906;51.660;6.674;2023-12-04T00:31:38;20.90;;;12.73;;
11699;SDS011;5906;51.660;6.674;2023-12-04T00:34:06;27.00;;;12.77;;
11699;SDS011;5906;51.660;6.674;2023-12-04T00:36:33;23.17;;;12.80;;
11699;SDS011;5906;51.660;6.674;2023-12-04T00:39:01;21.60;;;12.93;;
11699;SDS011;5906;51.660;6.674;2023-12-04T00:41:29;21.50;;;12.77;;
11699;SDS011;5906;51.660;6.674;2023-12-04T00:43:57;21.37;;;12.27;;
11699;SDS011;5906;51.660;6.674;2023-12-04T00:46:24;27.13;;;13.93;;
11699;SDS011;5906;51.660;6.674;2023-12-04T00:48:52;24.30;;;12.70;;
11699;SDS011;5906;51.660;6.674;2023-12-04T00:51:20;23.40;;;13.60;;
11699;SDS011;5906;51.660;6.674;2023-12-04T00:53:47;22.77;;;13.00;;
11699;SDS011;5906;51.660;6.674;2023-12-04T00:56:14;24.80;;;13.70;;
11699;SDS011;5906;51.660;6.674;2023-12-04T00:58:42;20.60;;;11.27;;
11699;SDS011;5906;51.660;6.674;2023-12-04T01:01:09;25.43;;;12.70;;
11699;SDS011;5906;51.660;6.674;2023-12-04T01:03:37;20.37;;;13.30;;
11699;SDS011;5906;51.660;6.674;2023-12-04T01:06:05;20.63;;;12.50;;
11699;SDS011;5906;51.660;6.674;2023-12-04T01:08:32;23.30;;;13.57;;
11699;SDS011;5906;51.660;6.674;2023-12-04T01:11:00;20.43;;;11.50;;
11699;SDS011;5906;51.660;6.674;2023-12-04T01:13:27;22.93;;;12.43;;
11699;SDS011;5906;51.660;6.674;2023-12-04T01:15:54;21.93;;;12.17;;
11699;SDS011;5906;51.660;6.674;2023-12-04T01:18:22;24.10;;;12.50;;
11699;SDS011;5906;51.660;6.674;2023-12-04T01:20:50;19.40;;;11.67;;
11699;SDS011;5906;51.660;6.674;2023-12-04T01:23:17;20.00;;;12.70;;
11699;SDS011;5906;51.660;6.674;2023-12-04T01:25:45;21.60;;;12.73;;
11699;SDS011;5906;51.660;6.674;2023-12-04T01:28:12;18.70;;;10.67;;
11699;SDS011;5906;51.660;6.674;2023-12-04T01:30:40;21.00;;;10.97;;
11699;SDS011;5906;51.660;6.674;2023-12-04T01:33:07;17.80;;;11.10;;
11699;SDS011;5906;51.660;6.674;2023-12-04T01:35:35;21.80;;;12.50;;
11699;SDS011;5906;51.660;6.674;2023-12-04T01:38:02;20.10;;;11.40;;
11699;SDS011;5906;51.660;6.674;2023-12-04T01:40:29;19.80;;;11.40;;
11699;SDS011;5906;51.660;6.674;2023-12-04T01:42:57;22.30;;;11.33;;
11699;SDS011;5906;51.660;6.674;2023-12-04T01:45:24;27.00;;;11.83;;
11699;SDS011;5906;51.660;6.674;2023-12-04T01:47:51;20.33;;;11.10;;
11699;SDS011;5906;51.660;6.674;2023-12-04T01:50:19;19.50;;;11.67;;
11699;SDS011;5906;51.660;6.674;2023-12-04T01:52:47;17.47;;;11.13;;
11699;SDS011;5906;51.660;6.674;2023-12-04T01:55:14;17.27;;;11.07;;
11699;SDS011;5906;51.660;6.674;2023-12-04T01:57:42;20.00;;;11.10;;
11699;SDS011;5906;51.660;6.674;2023-12-04T02:00:09;17.87;;;11.00;;
11699;SDS011;5906;51.660;6.674;2023-12-04T02:02:38;20.87;;;9.07;;
11699;SDS011;5906;51.660;6.674;2023-12-04T02:05:09;19.80;;;11.50;;
11699;SDS011;5906;51.660;6.674;2023-12-04T02:07:38;18.63;;;12.27;;
11699;SDS011;5906;51.660;6.674;2023-12-04T02:10:07;17.80;;;10.97;;
11699;SDS011;5906;51.660;6.674;2023-12-04T02:12:35;22.60;;;12.20;;
11699;SDS011;5906;51.660;6.674;2023-12-04T02:15:03;21.43;;;11.43;;
11699;SDS011;5906;51.660;6.674;2023-12-04T02:17:30;18.73;;;10.63;;
11699;SDS011;5906;51.660;6.674;2023-12-04T02:20:00;21.10;;;11.53;;
11699;SDS011;5906;51.660;6.674;2023-12-04T02:22:29;17.43;;;11.23;;
11699;SDS011;5906;51.660;6.674;2023-12-04T02:24:57;17.77;;;10.20;;
11699;SDS011;5906;51.660;6.674;2023-12-04T02:27:28;20.83;;;10.37;;
11699;SDS011;5906;51.660;6.674;2023-12-04T02:29:57;17.63;;;11.10;;
11699;SDS011;5906;51.660;6.674;2023-12-04T02:32:27;18.13;;;10.63;;
11699;SDS011;5906;51.660;6.674;2023-12-04T02:34:56;17.87;;;10.10;;
11699;SDS011;5906;51.660;6.674;2023-12-04T02:37:25;22.40;;;10.17;;
11699;SDS011;5906;51.660;6.674;2023-12-04T02:39:53;19.47;;;11.07;;
11699;SDS011;5906;51.660;6.674;2023-12-04T02:42:22;18.60;;;10.93;;
11699;SDS011;5906;51.660;6.674;2023-12-04T02:44:51;23.43;;;12.37;;
11699;SDS011;5906;51.660;6.674;2023-12-04T02:47:18;20.20;;;10.97;;
11699;SDS011;5906;51.660;6.674;2023-12-04T02:49:46;15.60;;;10.80;;
11699;SDS011;5906;51.660;6.674;2023-12-04T02:52:13;16.30;;;10.27;;
11699;SDS011;5906;51.660;6.674;2023-12-04T02:54:40;13.47;;;9.77;;
11699;SDS011;5906;51.660;6.674;2023-12-04T02:57:08;14.90;;;9.80;;
11699;SDS011;5906;51.660;6.674;2023-12-04T02:59:35;14.60;;;9.53;;
11699;SDS011;5906;51.660;6.674;2023-12-04T03:02:02;13.20;;;9.40;;
11699;SDS011;5906;51.660;6.674;2023-12-04T03:04:30;16.53;;;10.53;;
11699;SDS011;5906;51.660;6.674;2023-12-04T03:06:57;14.70;;;9.73;;
11699;SDS011;5906;51.660;6.674;2023-12-04T03:09:25;15.60;;;9.77;;
11699;SDS011;5906;51.660;6.674;2023-12-04T03:12:12;15.10;;;10.00;;
11699;SDS011;5906;51.660;6.674;2023-12-04T03:14:39;15.67;;;10.20;;
11699;SDS011;5906;51.660;6.674;2023-12-04T03:17:07;16.93;;;10.00;;
11699;SDS011;5906;51.660;6.674;2023-12-04T03:19:34;16.90;;;11.40;;
11699;SDS011;5906;51.660;6.674;2023-12-04T03:22:02;13.70;;;9.23;;
11699;SDS011;5906;51.660;6.674;2023-12-04T03:24:29;12.80;;;9.40;;
11699;SDS011;5906;51.660;6.674;2023-12-04T03:26:57;18.17;;;10.87;;
11699;SDS011;5906;51.660;6.674;2023-12-04T03:29:24;12.90;;;9.53;;
11699;SDS011;5906;51.660;6.674;2023-12-04T03:31:51;14.23;;;9.30;;
11699;SDS011;5906;51.660;6.674;2023-12-04T03:34:19;15.27;;;10.67;;
11699;SDS011;5906;51.660;6.674;2023-12-04T03:36:46;13.10;;;8.93;;
11699;SDS011;5906;51.660;6.674;2023-12-04T03:39:13;14.90;;;9.50;;
11699;SDS011;5906;51.660;6.674;2023-12-04T03:41:41;16.00;;;10.40;;
11699;SDS011;5906;51.660;6.674;2023-12-04T03:44:08;12.07;;;8.20;;
11699;SDS011;5906;51.660;6.674;2023-12-04T03:46:35;12.67;;;9.43;;
11699;SDS011;5906;51.660;6.674;2023-12-04T03:49:03;14.43;;;8.90;;
11699;SDS011;5906;51.660;6.674;2023-12-04T03:51:30;14.70;;;9.80;;
11699;SDS011;5906;51.660;6.674;2023-12-04T03:53:58;11.27;;;8.00;;
11699;SDS011;5906;51.660;6.674;2023-12-04T03:56:25;16.87;;;8.47;;
11699;SDS011;5906;51.660;6.674;2023-12-04T03:58:53;13.43;;;9.10;;
11699;SDS011;5906;51.660;6.674;2023-12-04T04:01:20;16.17;;;8.90;;
11699;SDS011;5906;51.660;6.674;2023-12-04T04:03:48;13.30;;;8.73;;
11699;SDS011;5906;51.660;6.674;2023-12-04T04:06:15;13.30;;;9.13;;
11699;SDS011;5906;51.660;6.674;2023-12-04T04:08:43;15.00;;;9.00;;
11699;SDS011;5906;51.660;6.674;2023-12-04T04:11:10;14.73;;;9.27;;
11699;SDS011;5906;51.660;6.674;2023-12-04T04:13:38;13.80;;;8.50;;
11699;SDS011;5906;51.660;6.674;2023-12-04T04:16:05;14.57;;;9.77;;
11699;SDS011;5906;51.660;6.674;2023-12-04T04:18:33;16.53;;;10.17;;
11699;SDS011;5906;51.660;6.674;2023-12-04T04:21:01;13.17;;;8.50;;
11699;SDS011;5906;51.660;6.674;2023-12-04T04:23:28;14.83;;;9.80;;
11699;SDS011;5906;51.660;6.674;2023-12-04T04:25:56;14.70;;;9.07;;
11699;SDS011;5906;51.660;6.674;2023-12-04T04:28:23;15.20;;;10.17;;
11699;SDS011;5906;51.660;6.674;2023-12-04T04:30:50;10.03;;;7.93;;
11699;SDS011;5906;51.660;6.674;2023-12-04T04:33:18;13.80;;;8.40;;
11699;SDS011;5906;51.660;6.674;2023-12-04T04:35:45;13.80;;;9.80;;
11699;SDS011;5906;51.660;6.674;2023-12-04T04:38:12;14.43;;;9.97;;
11699;SDS011;5906;51.660;6.674;2023-12-04T04:40:39;11.90;;;8.00;;
11699;SDS011;5906;51.660;6.674;2023-12-04T04:43:10;11.67;;;8.53;;
11699;SDS011;5906;51.660;6.674;2023-12-04T04:45:37;10.50;;;9.30;;
11699;SDS011;5906;51.660;6.674;2023-12-04T04:48:05;14.13;;;10.03;;
11699;SDS011;5906;51.660;6.674;2023-12-04T04:50:32;13.17;;;8.50;;
11699;SDS011;5906;51.660;6.674;2023-12-04T04:53:00;15.27;;;9.10;;
11699;SDS011;5906;51.660;6.674;2023-12-04T04:55:27;12.53;;;8.90;;
11699;SDS011;5906;51.660;6.674;2023-12-04T04:58:14;10.40;;;7.73;;
11699;SDS011;5906;51.660;6.674;2023-12-04T05:00:41;12.13;;;9.20;;
11699;SDS011;5906;51.660;6.674;2023-12-04T05:03:08;11.23;;;7.93;;
11699;SDS011;5906;51.660;6.674;2023-12-04T05:05:36;11.83;;;8.10;;
11699;SDS011;5906;51.660;6.674;2023-12-04T05:08:03;11.33;;;8.43;;
11699;SDS011;5906;51.660;6.674;2023-12-04T05:10:31;10.00;;;8.50;;
11699;SDS011;5906;51.660;6.674;2023-12-04T05:12:58;13.47;;;8.10;;
11699;SDS011;5906;51.660;6.674;2023-12-04T05:15:25;9.80;;;7.57;;
11699;SDS011;5906;51.660;6.674;2023-12-04T05:17:53;9.03;;;7.13;;
11699;SDS011;5906;51.660;6.674;2023-12-04T05:20:20;9.43;;;7.40;;
11699;SDS011;5906;51.660;6.674;2023-12-04T05:22:48;10.47;;;7.20;;
11699;SDS011;5906;51.660;6.674;2023-12-04T05:25:16;9.50;;;7.60;;
11699;SDS011;5906;51.660;6.674;2023-12-04T05:27:44;10.87;;;8.53;;
11699;SDS011;5906;51.660;6.674;2023-12-04T05:30:15;10.90;;;8.90;;
11699;SDS011;5906;51.660;6.674;2023-12-04T05:32:42;9.37;;;6.30;;
11699;SDS011;5906;51.660;6.674;2023-12-04T05:35:10;12.27;;;7.73;;
11699;SDS011;5906;51.660;6.674;2023-12-04T05:37:37;9.97;;;8.10;;
11699;SDS011;5906;51.660;6.674;2023-12-04T05:40:05;9.30;;;7.40;;
11699;SDS011;5906;51.660;6.674;2023-12-04T05:42:32;8.37;;;7.23;;
11699;SDS011;5906;51.660;6.674;2023-12-04T05:45:00;11.40;;;8.50;;
11699;SDS011;5906;51.660;6.674;2023-12-04T05:47:27;9.40;;;7.47;;
11699;SDS011;5906;51.660;6.674;2023-12-04T05:49:54;8.47;;;6.77;;
11699;SDS011;5906;51.660;6.674;2023-12-04T05:52:22;8.30;;;6.37;;
11699;SDS011;5906;51.660;6.674;2023-12-04T05:54:49;8.00;;;7.07;;
11699;SDS011;5906;51.660;6.674;2023-12-04T05:57:17;9.00;;;7.17;;
11699;SDS011;5906;51.660;6.674;2023-12-04T05:59:44;8.53;;;6.67;;
11699;SDS011;5906;51.660;6.674;2023-12-04T06:02:13;9.40;;;6.60;;
11699;SDS011;5906;51.660;6.674;2023-12-04T06:04:41;9.00;;;6.50;;
11699;SDS011;5906;51.660;6.674;2023-12-04T06:07:09;9.30;;;7.03;;
11699;SDS011;5906;51.660;6.674;2023-12-04T06:09:36;9.83;;;8.20;;
11699;SDS011;5906;51.660;6.674;2023-12-04T06:12:04;8.47;;;7.50;;
11699;SDS011;5906;51.660;6.674;2023-12-04T06:14:35;11.30;;;8.00;;
11699;SDS011;5906;51.660;6.674;2023-12-04T06:17:02;8.93;;;7.20;;
11699;SDS011;5906;51.660;6.674;2023-12-04T06:19:32;11.10;;;8.37;;
11699;SDS011;5906;51.660;6.674;2023-12-04T06:21:59;11.77;;;7.30;;
11699;SDS011;5906;51.660;6.674;2023-12-04T06:24:27;8.63;;;7.53;;
11699;SDS011;5906;51.660;6.674;2023-12-04T06:26:56;11.33;;;8.10;;
11699;SDS011;5906;51.660;6.674;2023-12-04T06:29:24;8.03;;;6.90;;
11699;SDS011;5906;51.660;6.674;2023-12-04T06:31:51;10.90;;;8.00;;
11699;SDS011;5906;51.660;6.674;2023-12-04T06:34:20;8.87;;;7.80;;
11699;SDS011;5906;51.660;6.674;2023-12-04T06:36:47;10.40;;;7.63;;
11699;SDS011;5906;51.660;6.674;2023-12-04T06:39:15;8.77;;;6.87;;
11699;SDS011;5906;51.660;6.674;2023-12-04T06:41:43;10.23;;;7.57;;
11699;SDS011;5906;51.660;6.674;2023-12-04T06:44:13;11.00;;;8.20;;
11699;SDS011;5906;51.660;6.674;2023-12-04T06:46:41;11.23;;;9.07;;
11699;SDS011;5906;51.660;6.674;2023-12-04T06:49:12;11.40;;;7.70;;
11699;SDS011;5906;51.660;6.674;2023-12-04T06:51:43;10.53;;;7.30;;
11699;SDS011;5906;51.660;6.674;2023-12-04T06:54:11;10.47;;;8.20;;
11699;SDS011;5906;51.660;6.674;2023-12-04T06:56:40;11.13;;;7.90;;
11699;SDS011;5906;51.660;6.674;2023-12-04T06:59:07;10.27;;;8.30;;
11699;SDS011;5906;51.660;6.674;2023-12-04T07:01:36;9.47;;;7.80;;
11699;SDS011;5906;51.660;6.674;2023-12-04T07:04:04;10.40;;;8.40;;
11699;SDS011;5906;51.660;6.674;2023-12-04T07:06:37;12.10;;;8.40;;
11699;SDS011;5906;51.660;6.674;2023-12-04T07:09:04;11.00;;;7.90;;
11699;SDS011;5906;51.660;6.674;2023-12-04T07:11:37;13.07;;;8.33;;
11699;SDS011;5906;51.660;6.674;2023-12-04T07:14:04;13.63;;;9.17;;
11699;SDS011;5906;51.660;6.674;2023-12-04T07:16:38;10.67;;;7.47;;
11699;SDS011;5906;51.660;6.674;2023-12-04T07:19:06;12.73;;;8.90;;
11699;SDS011;5906;51.660;6.674;2023-12-04T07:21:33;11.70;;;8.90;;
11699;SDS011;5906;51.660;6.674;2023-12-04T07:24:01;11.80;;;7.77;;
11699;SDS011;5906;51.660;6.674;2023-12-04T07:26:28;11.47;;;7.40;;
11699;SDS011;5906;51.660;6.674;2023-12-04T07:28:55;11.63;;;8.00;;
11699;SDS011;5906;51.660;6.674;2023-12-04T07:31:23;14.20;;;9.50;;
11699;SDS011;5906;51.660;6.674;2023-12-04T07:33:53;13.37;;;10.23;;
11699;SDS011;5906;51.660;6.674;2023-12-04T07:36:20;10.47;;;8.43;;
11699;SDS011;5906;51.660;6.674;2023-12-04T07:38:47;10.83;;;8.13;;
11699;SDS011;5906;51.660;6.674;2023-12-04T07:41:15;9.23;;;7.90;;
11699;SDS011;5906;51.660;6.674;2023-12-04T07:43:44;15.33;;;9.27;;
11699;SDS011;5906;51.660;6.674;2023-12-04T07:46:12;14.77;;;8.47;;
11699;SDS011;5906;51.660;6.674;2023-12-04T07:48:40;12.00;;;9.33;;
11699;SDS011;5906;51.660;6.674;2023-12-04T07:51:08;10.43;;;8.57;;
11699;SDS011;5906;51.660;6.674;2023-12-04T07:53:39;14.30;;;8.77;;
11699;SDS011;5906;51.660;6.674;2023-12-04T07:56:06;11.73;;;7.63;;
11699;SDS011;5906;51.660;6.674;2023-12-04T07:58:34;12.40;;;7.90;;
11699;SDS011;5906;51.660;6.674;2023-12-04T08:01:01;11.53;;;8.37;;
11699;SDS011;5906;51.660;6.674;2023-12-04T08:03:29;10.77;;;9.30;;
11699;SDS011;5906;51.660;6.674;2023-12-04T08:05:57;11.80;;;8.37;;
11699;SDS011;5906;51.660;6.674;2023-12-04T08:08:24;10.77;;;8.07;;
11699;SDS011;5906;51.660;6.674;2023-12-04T08:10:52;13.93;;;9.67;;
11699;SDS011;5906;51.660;6.674;2023-12-04T08:13:19;13.50;;;9.17;;
11699;SDS011;5906;51.660;6.674;2023-12-04T08:15:47;14.17;;;9.00;;
11699;SDS011;5906;51.660;6.674;2023-12-04T08:18:14;12.40;;;8.53;;
11699;SDS011;5906;51.660;6.674;2023-12-04T08:20:42;11.77;;;8.60;;
11699;SDS011;5906;51.660;6.674;2023-12-04T08:23:10;12.03;;;8.77;;
11699;SDS011;5906;51.660;6.674;2023-12-04T08:25:37;11.90;;;9.10;;
11699;SDS011;5906;51.660;6.674;2023-12-04T08:28:05;13.20;;;8.73;;
11699;SDS011;5906;51.660;6.674;2023-12-04T08:30:35;12.17;;;8.73;;
11699;SDS011;5906;51.660;6.674;2023-12-04T08:33:03;11.60;;;8.20;;
11699;SDS011;5906;51.660;6.674;2023-12-04T08:35:30;12.67;;;9.27;;
11699;SDS011;5906;51.660;6.674;2023-12-04T08:37:58;13.97;;;8.97;;
11699;SDS011;5906;51.660;6.674;2023-12-04T08:40:26;16.10;;;9.00;;
11699;SDS011;5906;51.660;6.674;2023-12-04T08:42:53;14.57;;;9.00;;
11699;SDS011;5906;51.660;6.674;2023-12-04T08:45:20;11.10;;;8.63;;
11699;SDS011;5906;51.660;6.674;2023-12-04T08:47:47;14.83;;;9.10;;
11699;SDS011;5906;51.660;6.674;2023-12-04T08:50:15;13.03;;;10.30;;
11699;SDS011;5906;51.660;6.674;2023-12-04T08:52:43;14.37;;;9.10;;
11699;SDS011;5906;51.660;6.674;2023-12-04T08:55:11;9.60;;;7.87;;
11699;SDS011;5906;51.660;6.674;2023-12-04T08:57:39;11.97;;;9.30;;
11699;SDS011;5906;51.660;6.674;2023-12-04T09:00:07;14.50;;;10.03;;
11699;SDS011;5906;51.660;6.674;2023-12-04T09:02:34;14.47;;;8.90;;
11699;SDS011;5906;51.660;6.674;2023-12-04T09:05:11;10.90;;;8.20;;
11699;SDS011;5906;51.660;6.674;2023-12-04T09:07:39;10.07;;;8.13;;
11699;SDS011;5906;51.660;6.674;2023-12-04T09:10:27;11.67;;;8.90;;
11699;SDS011;5906;51.660;6.674;2023-12-04T09:13:14;15.33;;;9.20;;
11699;SDS011;5906;51.660;6.674;2023-12-04T09:15:42;12.40;;;8.37;;
11699;SDS011;5906;51.660;6.674;2023-12-04T09:18:09;11.67;;;9.50;;
11699;SDS011;5906;51.660;6.674;2023-12-04T09:20:36;9.90;;;8.90;;
11699;SDS011;5906;51.660;6.674;2023-12-04T09:23:04;10.30;;;8.20;;
11699;SDS011;5906;51.660;6.674;2023-12-04T09:25:35;12.73;;;8.77;;
11699;SDS011;5906;51.660;6.674;2023-12-04T09:28:03;10.77;;;7.60;;
11699;SDS011;5906;51.660;6.674;2023-12-04T09:30:30;9.07;;;7.70;;
11699;SDS011;5906;51.660;6.674;2023-12-04T09:32:57;9.17;;;7.70;;
11699;SDS011;5906;51.660;6.674;2023-12-04T09:35:25;10.37;;;8.03;;
11699;SDS011;5906;51.660;6.674;2023-12-04T09:37:52;11.73;;;9.47;;
11699;SDS011;5906;51.660;6.674;2023-12-04T09:40:20;12.77;;;8.10;;
11699;SDS011;5906;51.660;6.674;2023-12-04T09:42:47;11.33;;;8.07;;
11699;SDS011;5906;51.660;6.674;2023-12-04T09:45:15;11.67;;;7.90;;
11699;SDS011;5906;51.660;6.674;2023-12-04T09:47:42;9.63;;;7.37;;
11699;SDS011;5906;51.660;6.674;2023-12-04T09:50:10;10.67;;;7.40;;
11699;SDS011;5906;51.660;6.674;2023-12-04T09:52:38;8.60;;;7.70;;
11699;SDS011;5906;51.660;6.674;2023-12-04T09:55:06;9.87;;;7.57;;
11699;SDS011;5906;51.660;6.674;2023-12-04T09:57:34;7.80;;;6.50;;
11699;SDS011;5906;51.660;6.674;2023-12-04T10:00:02;13.57;;;8.40;;
11699;SDS011;5906;51.660;6.674;2023-12-04T10:02:30;7.67;;;6.73;;
11699;SDS011;5906;51.660;6.674;2023-12-04T10:04:58;9.67;;;6.30;;
11699;SDS011;5906;51.660;6.674;2023-12-04T10:07:26;8.40;;;6.73;;
11699;SDS011;5906;51.660;6.674;2023-12-04T10:09:53;7.80;;;6.00;;
11699;SDS011;5906;51.660;6.674;2023-12-04T10:12:21;8.03;;;7.23;;
11699;SDS011;5906;51.660;6.674;2023-12-04T10:15:04;12.10;;;6.80;;
11699;SDS011;5906;51.660;6.674;2023-12-04T10:17:34;7.00;;;6.30;;
11699;SDS011;5906;51.660;6.674;2023-12-04T10:20:07;9.47;;;7.57;;
11699;SDS011;5906;51.660;6.674;2023-12-04T10:22:39;8.57;;;7.70;;
11699;SDS011;5906;51.660;6.674;2023-12-04T10:25:16;7.90;;;7.10;;
11699;SDS011;5906;51.660;6.674;2023-12-04T10:27:45;9.97;;;6.90;;
11699;SDS011;5906;51.660;6.674;2023-12-04T10:30:22;9.33;;;7.80;;
11699;SDS011;5906;51.660;6.674;2023-12-04T10:32:53;7.03;;;6.33;;
11699;SDS011;5906;51.660;6.674;2023-12-04T10:35:21;9.43;;;6.87;;
11699;SDS011;5906;51.660;6.674;2023-12-04T10:37:54;11.50;;;7.13;;
11699;SDS011;5906;51.660;6.674;2023-12-04T10:40:26;8.10;;;7.00;;
11699;SDS011;5906;51.660;6.674;2023-12-04T10:43:36;9.80;;;7.30;;
11699;SDS011;5906;51.660;6.674;2023-12-04T10:45:45;6.90;;;6.10;;
11699;SDS011;5906;51.660;6.674;2023-12-04T10:48:13;24.23;;;6.43;;
11699;SDS011;5906;51.660;6.674;2023-12-04T10:50:45;8.23;;;6.43;;
11699;SDS011;5906;51.660;6.674;2023-12-04T10:53:14;9.03;;;6.40;;
11699;SDS011;5906;51.660;6.674;2023-12-04T10:55:42;8.20;;;6.30;;
11699;SDS011;5906;51.660;6.674;2023-12-04T10:58:11;9.03;;;7.23;;
11699;SDS011;5906;51.660;6.674;2023-12-04T11:00:42;8.00;;;6.60;;
11699;SDS011;5906;51.660;6.674;2023-12-04T11:05:50;8.53;;;6.77;;
11699;SDS011;5906;51.660;6.674;2023-12-04T11:08:18;7.97;;;6.37;;
11699;SDS011;5906;51.660;6.674;2023-12-04T11:13:30;10.60;;;7.00;;
11699;SDS011;5906;51.660;6.674;2023-12-04T11:16:02;9.40;;;7.10;;
11699;SDS011;5906;51.660;6.674;2023-12-04T11:18:35;6.97;;;6.27;;
11699;SDS011;5906;51.660;6.674;2023-12-04T11:21:07;8.63;;;6.33;;
11699;SDS011;5906;51.660;6.674;2023-12-04T11:23:35;9.90;;;7.07;;
11699;SDS011;5906;51.660;6.674;2023-12-04T11:26:04;8.47;;;6.63;;
11699;SDS011;5906;51.660;6.674;2023-12-04T11:28:32;8.93;;;7.30;;
11699;SDS011;5906;51.660;6.674;2023-12-04T11:31:00;10.47;;;7.93;;
11699;SDS011;5906;51.660;6.674;2023-12-04T11:33:28;10.00;;;7.30;;
11699;SDS011;5906;51.660;6.674;2023-12-04T11:36:05;14.73;;;7.00;;
11699;SDS011;5906;51.660;6.674;2023-12-04T11:38:35;12.20;;;6.80;;
11699;SDS011;5906;51.660;6.674;2023-12-04T11:43:50;8.73;;;7.00;;
11699;SDS011;5906;51.660;6.674;2023-12-04T11:46:19;11.23;;;6.73;;
11699;SDS011;5906;51.660;6.674;2023-12-04T11:48:49;9.00;;;7.10;;
11699;SDS011;5906;51.660;6.674;2023-12-04T11:54:03;11.00;;;7.73;;
11699;SDS011;5906;51.660;6.674;2023-12-04T11:56:31;13.83;;;8.40;;
11699;SDS011;5906;51.660;6.674;2023-12-04T11:59:05;11.47;;;7.70;;
11699;SDS011;5906;51.660;6.674;2023-12-04T12:01:33;8.87;;;7.60;;
11699;SDS011;5906;51.660;6.674;2023-12-04T12:04:01;8.97;;;7.40;;
11699;SDS011;5906;51.660;6.674;2023-12-04T12:06:29;12.73;;;7.50;;
11699;SDS011;5906;51.660;6.674;2023-12-04T12:08:56;8.93;;;7.13;;
11699;SDS011;5906;51.660;6.674;2023-12-04T12:11:24;9.23;;;7.47;;
11699;SDS011;5906;51.660;6.674;2023-12-04T12:13:55;8.77;;;8.03;;
11699;SDS011;5906;51.660;6.674;2023-12-04T12:16:22;9.43;;;7.87;;
11699;SDS011;5906;51.660;6.674;2023-12-04T12:18:49;10.70;;;7.87;;
11699;SDS011;5906;51.660;6.674;2023-12-04T12:21:17;14.73;;;9.10;;
11699;SDS011;5906;51.660;6.674;2023-12-04T12:23:45;11.27;;;8.43;;
11699;SDS011;5906;51.660;6.674;2023-12-04T12:26:13;9.77;;;8.13;;
11699;SDS011;5906;51.660;6.674;2023-12-04T12:28:40;11.70;;;7.03;;
11699;SDS011;5906;51.660;6.674;2023-12-04T12:31:07;9.10;;;8.00;;
11699;SDS011;5906;51.660;6.674;2023-12-04T12:33:35;12.93;;;8.37;;
11699;SDS011;5906;51.660;6.674;2023-12-04T12:36:02;8.87;;;6.93;;
11699;SDS011;5906;51.660;6.674;2023-12-04T12:38:31;10.40;;;7.67;;
11699;SDS011;5906;51.660;6.674;2023-12-04T12:41:05;9.10;;;7.30;;
11699;SDS011;5906;51.660;6.674;2023-12-04T12:43:33;12.20;;;8.80;;
11699;SDS011;5906;51.660;6.674;2023-12-04T12:46:01;11.63;;;8.57;;
11699;SDS011;5906;51.660;6.674;2023-12-04T12:48:32;10.90;;;8.80;;
11699;SDS011;5906;51.660;6.674;2023-12-04T12:51:04;12.03;;;8.00;;
11699;SDS011;5906;51.660;6.674;2023-12-04T12:53:32;14.83;;;9.23;;
11699;SDS011;5906;51.660;6.674;2023-12-04T12:56:00;16.57;;;9.90;;
11699;SDS011;5906;51.660;6.674;2023-12-04T12:58:27;14.00;;;10.67;;
11699;SDS011;5906;51.660;6.674;2023-12-04T13:00:55;13.53;;;9.83;;
11699;SDS011;5906;51.660;6.674;2023-12-04T13:03:22;15.73;;;8.47;;
11699;SDS011;5906;51.660;6.674;2023-12-04T13:05:50;13.13;;;9.50;;
11699;SDS011;5906;51.660;6.674;2023-12-04T13:08:18;13.77;;;9.70;;
11699;SDS011;5906;51.660;6.674;2023-12-04T13:10:45;11.97;;;8.97;;
11699;SDS011;5906;51.660;6.674;2023-12-04T13:13:14;8.97;;;7.87;;
11699;SDS011;5906;51.660;6.674;2023-12-04T13:15:41;12.60;;;8.17;;
11699;SDS011;5906;51.660;6.674;2023-12-04T13:18:09;14.20;;;8.53;;
11699;SDS011;5906;51.660;6.674;2023-12-04T13:20:37;13.57;;;8.87;;
11699;SDS011;5906;51.660;6.674;2023-12-04T13:23:04;8.97;;;8.03;;
11699;SDS011;5906;51.660;6.674;2023-12-04T13:25:32;11.13;;;8.57;;
11699;SDS011;5906;51.660;6.674;2023-12-04T13:28:00;10.97;;;8.50;;
11699;SDS011;5906;51.660;6.674;2023-12-04T13:30:27;11.57;;;7.80;;
11699;SDS011;5906;51.660;6.674;2023-12-04T13:32:55;10.50;;;7.40;;
11699;SDS011;5906;51.660;6.674;2023-12-04T13:35:22;9.30;;;7.90;;
11699;SDS011;5906;51.660;6.674;2023-12-04T13:37:50;9.53;;;8.20;;
11699;SDS011;5906;51.660;6.674;2023-12-04T13:40:21;12.70;;;8.70;;
11699;SDS011;5906;51.660;6.674;2023-12-04T13:42:53;11.63;;;7.40;;
11699;SDS011;5906;51.660;6.674;2023-12-04T13:45:39;12.47;;;9.13;;
11699;SDS011;5906;51.660;6.674;2023-12-04T13:48:07;11.10;;;8.80;;
11699;SDS011;5906;51.660;6.674;2023-12-04T13:50:35;10.97;;;8.43;;
11699;SDS011;5906;51.660;6.674;2023-12-04T13:53:02;9.00;;;7.57;;
11699;SDS011;5906;51.660;6.674;2023-12-04T13:55:31;13.73;;;9.83;;
11699;SDS011;5906;51.660;6.674;2023-12-04T13:58:17;8.53;;;7.17;;
11699;SDS011;5906;51.660;6.674;2023-12-04T14:01:05;11.60;;;8.50;;
11699;SDS011;5906;51.660;6.674;2023-12-04T14:03:49;11.80;;;8.37;;
11699;SDS011;5906;51.660;6.674;2023-12-04T14:06:16;10.40;;;8.07;;
11699;SDS011;5906;51.660;6.674;2023-12-04T14:08:44;10.20;;;7.47;;
11699;SDS011;5906;51.660;6.674;2023-12-04T14:11:12;10.93;;;8.40;;
11699;SDS011;5906;51.660;6.674;2023-12-04T14:13:41;12.23;;;7.90;;
11699;SDS011;5906;51.660;6.674;2023-12-04T14:16:08;11.33;;;8.23;;
11699;SDS011;5906;51.660;6.674;2023-12-04T14:18:36;9.57;;;7.57;;
11699;SDS011;5906;51.660;6.674;2023-12-04T14:21:04;8.90;;;7.10;;
11699;SDS011;5906;51.660;6.674;2023-12-04T14:23:31;12.40;;;9.90;;
11699;SDS011;5906;51.660;6.674;2023-12-04T14:25:58;9.50;;;7.27;;
11699;SDS011;5906;51.660;6.674;2023-12-04T14:28:26;11.77;;;7.87;;
11699;SDS011;5906;51.660;6.674;2023-12-04T14:31:00;13.07;;;8.50;;
11699;SDS011;5906;51.660;6.674;2023-12-04T14:33:28;18.23;;;8.40;;
11699;SDS011;5906;51.660;6.674;2023-12-04T14:35:55;11.50;;;8.30;;
11699;SDS011;5906;51.660;6.674;2023-12-04T14:38:22;9.63;;;7.53;;
11699;SDS011;5906;51.660;6.674;2023-12-04T14:40:50;17.10;;;8.43;;
11699;SDS011;5906;51.660;6.674;2023-12-04T14:43:18;11.33;;;7.80;;
11699;SDS011;5906;51.660;6.674;2023-12-04T14:45:45;10.23;;;7.90;;
11699;SDS011;5906;51.660;6.674;2023-12-04T14:48:13;10.23;;;7.87;;
11699;SDS011;5906;51.660;6.674;2023-12-04T14:50:40;9.30;;;7.47;;
11699;SDS011;5906;51.660;6.674;2023-12-04T14:53:07;8.60;;;7.40;;
11699;SDS011;5906;51.660;6.674;2023-12-04T14:55:55;10.37;;;7.13;;
11699;SDS011;5906;51.660;6.674;2023-12-04T14:58:41;10.00;;;6.97;;
11699;SDS011;5906;51.660;6.674;2023-12-04T15:01:12;8.90;;;7.27;;
11699;SDS011;5906;51.660;6.674;2023-12-04T15:04:14;13.13;;;7.60;;
11699;SDS011;5906;51.660;6.674;2023-12-04T15:07:00;12.10;;;7.40;;
11699;SDS011;5906;51.660;6.674;2023-12-04T15:09:32;9.70;;;7.53;;